Time;durP1;ratioP1;P1;durP2;ratioP2;P2;SDS_P1;SDS_P2;PMS_P1;PMS_P2;Temp;Humidity;BMP_temperature;BMP_pressure;BME280_temperature;BME280_humidity;BME280_pressure;Samples;Min_cycle;Max_cycle;Signal;HPM_P1;HPM_P2
2023/03/15 00:01:37;;;;;;;6.85;4.60;;;;;;;;;;4189095;28;20047;-56
2023/03/15 00:03:58;;;;;;;9.80;5.25;;;;;;;;;;4189501;28;20087;-56
2023/03/15 00:06:18;;;;;;;7.68;4.32;;;;;;;;;;4189217;28;20055;-56
2023/03/15 00:08:38;;;;;;;4.72;4.32;;;;;;;;;;4189486;28;20040;-56
2023/03/15 00:10:59;;;;;;;9.20;5.57;;;;;;;;;;4189537;28;20311;-56
2023/03/15 00:13:19;;;;;;;8.50;5.13;;;;;;;;;;4189354;28;20079;-56
2023/03/15 00:15:47;;;;;;;11.10;6.13;;;;;;;;;;4189303;28;20079;-56
2023/03/15 00:18:07;;;;;;;6.07;5.25;;;;;;;;;;4187698;28;20052;-56
2023/03/15 00:20:27;;;;;;;12.00;5.57;;;;;;;;;;4189374;28;20398;-56
2023/03/15 00:22:47;;;;;;;8.80;3.92;;;;;;;;;;4189291;28;20055;-56
2023/03/15 00:25:08;;;;;;;16.08;5.45;;;;;;;;;;4189075;28;20052;-56
2023/03/15 00:27:28;;;;;;;6.93;6.32;;;;;;;;;;4189498;28;20147;-56
2023/03/15 00:29:48;;;;;;;6.72;4.90;;;;;;;;;;4188099;28;20087;-56
2023/03/15 00:32:08;;;;;;;8.38;5.07;;;;;;;;;;4188651;28;20051;-56
2023/03/15 00:34:29;;;;;;;12.32;4.35;;;;;;;;;;4188370;28;20260;-56
2023/03/15 00:36:49;;;;;;;10.25;4.63;;;;;;;;;;4189081;28;20108;-56
2023/03/15 00:39:09;;;;;;;6.97;4.63;;;;;;;;;;4189167;28;20099;-56
2023/03/15 00:41:30;;;;;;;11.10;5.45;;;;;;;;;;4188037;28;20068;-56
2023/03/15 00:43:51;;;;;;;9.02;4.18;;;;;;;;;;4189584;28;20422;-56
2023/03/15 00:46:12;;;;;;;6.05;5.28;;;;;;;;;;4188967;28;20051;-56
2023/03/15 00:48:34;;;;;;;10.40;5.75;;;;;;;;;;4188858;28;20239;-56
2023/03/15 00:51:01;;;;;;;9.25;7.53;;;;;;;;;;4187850;28;20236;-56
2023/03/15 00:53:21;;;;;;;7.90;7.22;;;;;;;;;;4188173;28;20128;-56
2023/03/15 00:55:42;;;;;;;9.35;7.53;;;;;;;;;;4188122;28;20127;-56
2023/03/15 00:58:02;;;;;;;9.10;7.72;;;;;;;;;;4188569;28;20048;-56
2023/03/15 01:00:23;;;;;;;8.40;7.85;;;;;;;;;;4188092;28;20055;-56
2023/03/15 01:02:44;;;;;;;8.73;7.95;;;;;;;;;;4188291;28;20048;-56
2023/03/15 01:05:05;;;;;;;10.95;7.40;;;;;;;;;;4187589;28;20114;-56
2023/03/15 01:07:25;;;;;;;9.00;7.95;;;;;;;;;;4188867;28;20091;-56
2023/03/15 01:09:45;;;;;;;15.45;10.52;;;;;;;;;;4188436;28;20074;-56
2023/03/15 01:12:08;;;;;;;10.65;9.48;;;;;;;;;;4187379;28;20044;-56
2023/03/15 01:14:28;;;;;;;8.07;6.75;;;;;;;;;;4187054;28;20394;-56
2023/03/15 01:16:48;;;;;;;9.73;7.75;;;;;;;;;;4188684;28;20064;-56
2023/03/15 01:19:08;;;;;;;14.63;7.22;;;;;;;;;;4187501;28;20060;-56
2023/03/15 01:21:29;;;;;;;11.13;7.78;;;;;;;;;;4186694;28;20119;-56
2023/03/15 01:23:49;;;;;;;8.07;7.40;;;;;;;;;;4188777;28;20040;-56
2023/03/15 01:26:11;;;;;;;18.10;11.65;;;;;;;;;;4188012;28;20056;-56
2023/03/15 01:28:31;;;;;;;11.63;7.07;;;;;;;;;;4187053;28;20105;-56
2023/03/15 01:30:52;;;;;;;10.38;6.97;;;;;;;;;;4186002;28;20048;-56
2023/03/15 01:33:13;;;;;;;7.63;6.90;;;;;;;;;;4188567;28;20105;-56
2023/03/15 01:35:33;;;;;;;11.45;7.13;;;;;;;;;;4188622;28;20091;-56
2023/03/15 01:37:53;;;;;;;8.07;7.18;;;;;;;;;;4186372;28;20284;-56
2023/03/15 01:40:13;;;;;;;11.23;8.43;;;;;;;;;;4188675;28;20039;-56
2023/03/15 01:42:33;;;;;;;12.05;7.20;;;;;;;;;;4191821;28;20094;-56
2023/03/15 01:44:55;;;;;;;9.75;7.63;;;;;;;;;;4191299;28;20228;-56
2023/03/15 01:47:15;;;;;;;11.30;7.25;;;;;;;;;;4191343;28;20079;-56
2023/03/15 01:49:35;;;;;;;9.23;6.50;;;;;;;;;;4191404;28;20044;-56
2023/03/15 01:52:08;;;;;;;10.52;7.40;;;;;;;;;;4191223;28;20241;-56
2023/03/15 01:54:30;;;;;;;8.57;7.13;;;;;;;;;;4191045;28;20105;-56
2023/03/15 01:57:01;;;;;;;8.10;6.90;;;;;;;;;;4190173;28;20113;-56
2023/03/15 01:59:25;;;;;;;7.85;7.30;;;;;;;;;;4190543;28;20074;-56
2023/03/15 02:01:46;;;;;;;11.50;8.40;;;;;;;;;;4190157;28;20048;-57
2023/03/15 02:04:08;;;;;;;8.93;7.63;;;;;;;;;;4188999;28;20140;-57
2023/03/15 02:06:28;;;;;;;9.75;8.60;;;;;;;;;;4190317;28;20370;-58
2023/03/15 02:08:51;;;;;;;13.18;8.10;;;;;;;;;;4190830;28;20048;-57
2023/03/15 02:11:15;;;;;;;13.07;8.48;;;;;;;;;;4190397;28;20056;-57
2023/03/15 02:13:35;;;;;;;11.70;6.85;;;;;;;;;;4190545;28;20047;-57
2023/03/15 02:15:56;;;;;;;9.05;7.45;;;;;;;;;;4190983;28;20063;-57
2023/03/15 02:18:16;;;;;;;11.90;7.38;;;;;;;;;;4191024;28;20083;-57
2023/03/15 02:20:46;;;;;;;10.48;7.88;;;;;;;;;;4190094;28;20330;-57
2023/03/15 02:23:11;;;;;;;11.65;7.53;;;;;;;;;;4190098;28;20048;-57
2023/03/15 02:25:37;;;;;;;7.25;6.65;;;;;;;;;;4190241;28;20048;-57
2023/03/15 02:27:58;;;;;;;8.10;7.43;;;;;;;;;;4189421;28;20406;-57
2023/03/15 02:30:18;;;;;;;10.30;7.60;;;;;;;;;;4190766;28;20048;-57
2023/03/15 02:32:38;;;;;;;8.25;6.45;;;;;;;;;;4190499;28;20068;-57
2023/03/15 02:34:59;;;;;;;8.18;7.03;;;;;;;;;;4190134;28;20282;-57
2023/03/15 02:37:20;;;;;;;9.50;6.35;;;;;;;;;;4190658;28;20105;-57
2023/03/15 02:39:40;;;;;;;6.75;6.13;;;;;;;;;;4189646;28;20072;-57
2023/03/15 02:42:01;;;;;;;8.90;7.93;;;;;;;;;;4190654;28;20099;-57
2023/03/15 02:44:30;;;;;;;7.22;6.65;;;;;;;;;;4189596;28;20059;-57
2023/03/15 02:46:52;;;;;;;7.75;7.07;;;;;;;;;;4189672;28;20068;-57
2023/03/15 02:49:12;;;;;;;8.10;7.32;;;;;;;;;;4189863;28;20083;-57
2023/03/15 02:51:33;;;;;;;6.82;6.13;;;;;;;;;;4188551;28;20123;-57
2023/03/15 02:53:53;;;;;;;5.65;5.28;;;;;;;;;;4190131;28;20043;-57
2023/03/15 02:56:14;;;;;;;6.10;5.50;;;;;;;;;;4190047;28;20144;-57
2023/03/15 02:58:34;;;;;;;5.93;5.45;;;;;;;;;;4188734;28;20278;-57
2023/03/15 03:00:54;;;;;;;6.30;5.88;;;;;;;;;;4190165;28;20063;-57
2023/03/15 03:03:14;;;;;;;10.23;6.47;;;;;;;;;;4190097;28;20059;-57
2023/03/15 03:05:34;;;;;;;6.60;6.13;;;;;;;;;;4189069;28;20378;-57
2023/03/15 03:07:55;;;;;;;7.60;6.43;;;;;;;;;;4187784;28;20098;-57
2023/03/15 03:10:16;;;;;;;9.55;6.00;;;;;;;;;;4189913;28;20079;-57
2023/03/15 03:12:36;;;;;;;7.57;6.25;;;;;;;;;;4189710;28;20043;-57
2023/03/15 03:14:56;;;;;;;7.22;6.75;;;;;;;;;;4190232;28;20079;-57
2023/03/15 03:17:16;;;;;;;7.22;5.88;;;;;;;;;;4190030;28;20112;-57
2023/03/15 03:19:36;;;;;;;7.00;6.40;;;;;;;;;;4190185;28;20090;-57
2023/03/15 03:21:56;;;;;;;8.73;7.28;;;;;;;;;;4189552;28;20108;-58
2023/03/15 03:24:17;;;;;;;7.32;6.63;;;;;;;;;;4189937;28;20240;-57
2023/03/15 03:26:37;;;;;;;5.95;5.63;;;;;;;;;;4189308;28;20433;-57
2023/03/15 03:28:57;;;;;;;7.45;7.00;;;;;;;;;;4189775;28;20068;-57
2023/03/15 03:31:19;;;;;;;9.23;6.57;;;;;;;;;;4190069;28;20056;-57
2023/03/15 03:33:40;;;;;;;8.30;7.60;;;;;;;;;;4188995;28;20394;-57
2023/03/15 03:36:03;;;;;;;8.90;7.70;;;;;;;;;;4188807;28;20067;-58
2023/03/15 03:38:23;;;;;;;;;;;;;;;;;;4190247;28;20083;-57
2023/03/15 03:40:45;;;;;;;8.32;7.72;;;;;;;;;;4189407;28;20210;-57
2023/03/15 03:43:05;;;;;;;6.65;6.18;;;;;;;;;;4188694;28;20052;-57
2023/03/15 03:45:25;;;;;;;7.40;6.72;;;;;;;;;;4188767;28;20048;-57
2023/03/15 03:47:45;;;;;;;11.25;6.78;;;;;;;;;;4189604;28;20047;-57
2023/03/15 03:50:05;;;;;;;9.77;8.30;;;;;;;;;;4188351;28;20271;-57
2023/03/15 03:52:26;;;;;;;12.65;7.82;;;;;;;;;;4189255;28;20095;-57
2023/03/15 03:54:46;;;;;;;9.38;7.57;;;;;;;;;;4189661;28;20043;-57
2023/03/15 03:57:06;;;;;;;14.32;7.53;;;;;;;;;;4201003;28;20070;-56
2023/03/15 03:59:26;;;;;;;8.95;6.60;;;;;;;;;;4189741;28;20079;-56
2023/03/15 04:01:47;;;;;;;7.90;7.00;;;;;;;;;;4188482;28;20044;-56
2023/03/15 04:04:07;;;;;;;7.97;7.20;;;;;;;;;;4188214;28;20244;-56
2023/03/15 04:06:27;;;;;;;6.13;5.82;;;;;;;;;;4188450;28;20363;-56
2023/03/15 04:08:47;;;;;;;5.85;5.35;;;;;;;;;;4189004;28;20036;-56
2023/03/15 04:11:07;;;;;;;5.78;5.30;;;;;;;;;;4188358;28;20051;-56
2023/03/15 04:13:28;;;;;;;6.22;5.82;;;;;;;;;;4189472;28;20390;-56
2023/03/15 04:15:48;;;;;;;5.88;5.68;;;;;;;;;;4189491;28;20370;-56
2023/03/15 04:18:09;;;;;;;6.07;5.88;;;;;;;;;;4189430;28;20043;-56
2023/03/15 04:20:33;;;;;;;5.85;5.40;;;;;;;;;;4189376;28;20047;-56
2023/03/15 04:22:54;;;;;;;5.55;5.30;;;;;;;;;;4189439;28;20365;-56
2023/03/15 04:25:14;;;;;;;6.32;6.13;;;;;;;;;;4189033;28;20052;-56
2023/03/15 04:27:34;;;;;;;6.25;5.85;;;;;;;;;;4189378;28;20079;-56
2023/03/15 04:29:54;;;;;;;5.60;5.40;;;;;;;;;;4189193;28;20105;-55
2023/03/15 04:32:16;;;;;;;5.13;4.82;;;;;;;;;;4189080;28;20056;-56
2023/03/15 04:34:40;;;;;;;4.50;4.40;;;;;;;;;;4189104;28;20052;-56
2023/03/15 04:37:01;;;;;;;;;;;;;;;;;;4189669;28;20117;-56
2023/03/15 04:39:21;;;;;;;3.83;3.65;;;;;;;;;;4189221;28;19979;-55
2023/03/15 04:41:41;;;;;;;3.92;3.83;;;;;;;;;;4188929;28;20083;-56
2023/03/15 04:44:05;;;;;;;3.72;3.63;;;;;;;;;;4188997;28;20051;-55
2023/03/15 04:46:25;;;;;;;4.32;4.22;;;;;;;;;;4189080;28;20068;-55
2023/03/15 04:48:46;;;;;;;3.10;2.92;;;;;;;;;;4188895;28;20374;-56
2023/03/15 04:51:06;;;;;;;3.40;3.30;;;;;;;;;;4188872;28;20052;-56
2023/03/15 04:53:26;;;;;;;2.85;2.75;;;;;;;;;;4188866;28;20072;-55
2023/03/15 04:55:46;;;;;;;3.30;3.20;;;;;;;;;;4188231;28;20239;-56
2023/03/15 04:58:06;;;;;;;3.60;3.35;;;;;;;;;;4187998;28;20055;-56
2023/03/15 05:00:26;;;;;;;3.55;3.35;;;;;;;;;;4188366;28;20263;-56
2023/03/15 05:02:53;;;;;;;3.22;3.13;;;;;;;;;;4188095;28;20052;-56
2023/03/15 05:05:13;;;;;;;3.05;2.97;;;;;;;;;;4188619;28;20047;-56
2023/03/15 05:07:34;;;;;;;2.92;2.92;;;;;;;;;;4188203;28;20052;-56
2023/03/15 05:09:54;;;;;;;2.38;2.38;;;;;;;;;;4188915;28;20104;-56
2023/03/15 05:12:15;;;;;;;2.88;2.78;;;;;;;;;;4188828;28;20056;-56
2023/03/15 05:14:35;;;;;;;2.45;2.40;;;;;;;;;;4187784;28;20052;-56
2023/03/15 05:16:57;;;;;;;2.22;2.22;;;;;;;;;;4190142;28;20109;-56
2023/03/15 05:19:17;;;;;;;2.25;2.25;;;;;;;;;;4191498;28;20041;-56
2023/03/15 05:21:38;;;;;;;2.50;2.50;;;;;;;;;;4190959;28;20453;-56
2023/03/15 05:23:58;;;;;;;1.73;1.73;;;;;;;;;;4190024;28;20043;-56
2023/03/15 05:26:18;;;;;;;1.77;1.77;;;;;;;;;;4189908;28;20232;-56
2023/03/15 05:28:38;;;;;;;2.28;2.15;;;;;;;;;;4191410;28;20363;-56
2023/03/15 05:31:01;;;;;;;2.63;2.63;;;;;;;;;;4190336;28;20075;-56
2023/03/15 05:33:21;;;;;;;1.85;1.85;;;;;;;;;;4191644;28;20111;-56
2023/03/15 05:35:43;;;;;;;2.30;2.30;;;;;;;;;;4191400;28;20059;-56
2023/03/15 05:38:03;;;;;;;3.08;2.95;;;;;;;;;;4191288;28;20336;-56
2023/03/15 05:40:23;;;;;;;3.70;3.60;;;;;;;;;;4190111;28;20083;-58
2023/03/15 05:42:43;;;;;;;2.88;2.78;;;;;;;;;;4191306;28;20067;-58
2023/03/15 05:45:04;;;;;;;2.35;2.35;;;;;;;;;;4189937;28;20079;-58
2023/03/15 05:47:24;;;;;;;1.50;1.50;;;;;;;;;;4190666;28;20044;-58
2023/03/15 05:49:45;;;;;;;1.70;1.60;;;;;;;;;;4189436;28;20044;-58
2023/03/15 05:52:05;;;;;;;1.48;1.48;;;;;;;;;;4191285;28;20052;-58
2023/03/15 05:54:26;;;;;;;1.67;1.67;;;;;;;;;;4191359;28;20036;-58
2023/03/15 05:56:46;;;;;;;1.63;1.63;;;;;;;;;;4190059;28;20056;-58
2023/03/15 05:59:06;;;;;;;1.92;1.92;;;;;;;;;;4191232;28;20043;-58
2023/03/15 06:01:26;;;;;;;1.65;1.65;;;;;;;;;;4191303;28;20079;-58
2023/03/15 06:03:46;;;;;;;2.65;2.45;;;;;;;;;;4191187;28;20048;-58
2023/03/15 06:06:07;;;;;;;1.80;1.80;;;;;;;;;;4190941;28;20111;-58
2023/03/15 06:08:27;;;;;;;2.10;2.10;;;;;;;;;;4190858;28;20052;-58
2023/03/15 06:10:47;;;;;;;1.60;1.60;;;;;;;;;;4191137;28;20056;-58
2023/03/15 06:13:07;;;;;;;1.63;1.52;;;;;;;;;;4190368;28;20084;-59
2023/03/15 06:15:27;;;;;;;1.60;1.60;;;;;;;;;;4190208;28;20044;-58
2023/03/15 06:17:47;;;;;;;1.50;1.50;;;;;;;;;;4190012;28;20106;-58
2023/03/15 06:20:08;;;;;;;1.70;1.70;;;;;;;;;;4190510;28;20047;-58
2023/03/15 06:22:27;;;;;;;1.55;1.55;;;;;;;;;;4189502;28;20052;-60
2023/03/15 06:24:48;;;;;;;1.58;1.58;;;;;;;;;;4189255;28;20243;-60
2023/03/15 06:27:08;;;;;;;1.80;1.80;;;;;;;;;;4189744;28;20051;-61
2023/03/15 06:29:28;;;;;;;1.80;1.70;;;;;;;;;;4190650;28;20060;-61
2023/03/15 06:31:48;;;;;;;2.10;2.10;;;;;;;;;;4190820;28;20232;-60
2023/03/15 06:34:08;;;;;;;1.63;1.63;;;;;;;;;;4190553;28;20239;-60
2023/03/15 06:36:30;;;;;;;2.15;2.15;;;;;;;;;;4190602;28;20063;-60
2023/03/15 06:38:53;;;;;;;1.70;1.70;;;;;;;;;;4190574;28;20052;-60
2023/03/15 06:41:14;;;;;;;1.60;1.60;;;;;;;;;;4190782;28;20055;-60
2023/03/15 06:43:34;;;;;;;1.63;1.63;;;;;;;;;;4189333;28;20220;-60
2023/03/15 06:45:55;;;;;;;2.20;2.20;;;;;;;;;;4190617;28;20052;-60
2023/03/15 06:48:16;;;;;;;2.00;2.00;;;;;;;;;;4189641;28;20461;-61
2023/03/15 06:50:36;;;;;;;1.65;1.65;;;;;;;;;;4189655;28;20048;-60
2023/03/15 06:53:07;;;;;;;1.75;1.75;;;;;;;;;;4189703;28;20224;-61
2023/03/15 06:55:27;;;;;;;2.00;2.00;;;;;;;;;;4188925;28;20225;-61
2023/03/15 06:57:47;;;;;;;2.20;2.20;;;;;;;;;;4190514;28;20079;-61
2023/03/15 07:00:10;;;;;;;1.83;1.73;;;;;;;;;;4189682;28;20071;-61
2023/03/15 07:02:35;;;;;;;1.60;1.50;;;;;;;;;;4188776;28;20228;-61
2023/03/15 07:04:55;;;;;;;2.00;1.90;;;;;;;;;;4189059;28;20270;-61
2023/03/15 07:07:16;;;;;;;1.50;1.50;;;;;;;;;;4195516;28;20359;-61
2023/03/15 07:09:36;;;;;;;1.77;1.77;;;;;;;;;;4188975;28;20036;-60
2023/03/15 07:11:56;;;;;;;1.60;1.60;;;;;;;;;;4190443;28;20052;-60
2023/03/15 07:14:16;;;;;;;1.88;1.88;;;;;;;;;;4190330;28;20175;-61
2023/03/15 07:16:37;;;;;;;1.45;1.45;;;;;;;;;;4189416;28;20054;-61
2023/03/15 07:18:58;;;;;;;1.92;1.83;;;;;;;;;;4190292;28;20047;-61
2023/03/15 07:21:18;;;;;;;2.05;1.58;;;;;;;;;;4188367;28;20398;-61
2023/03/15 07:23:38;;;;;;;1.65;1.60;;;;;;;;;;4189943;28;20044;-61
2023/03/15 07:25:59;;;;;;;1.60;1.60;;;;;;;;;;4190129;28;20068;-60
2023/03/15 07:28:20;;;;;;;2.30;2.30;;;;;;;;;;4189055;28;20118;-61
2023/03/15 07:30:40;;;;;;;1.77;1.77;;;;;;;;;;4190053;28;20090;-61
2023/03/15 07:33:00;;;;;;;1.85;1.85;;;;;;;;;;4189373;28;20047;-61
2023/03/15 07:35:20;;;;;;;1.75;1.75;;;;;;;;;;4189991;28;20079;-60
2023/03/15 07:37:41;;;;;;;1.65;1.65;;;;;;;;;;4189734;28;20389;-61
2023/03/15 07:40:08;;;;;;;2.10;2.00;;;;;;;;;;4188768;28;20091;-60
2023/03/15 07:42:29;;;;;;;1.70;1.70;;;;;;;;;;4189763;28;20324;-60
2023/03/15 07:44:49;;;;;;;1.45;1.45;;;;;;;;;;4188497;28;20052;-60
2023/03/15 07:47:10;;;;;;;1.70;1.70;;;;;;;;;;4189528;28;20263;-61
2023/03/15 07:49:30;;;;;;;1.80;1.80;;;;;;;;;;4189911;28;20055;-60
2023/03/15 07:51:51;;;;;;;1.77;1.77;;;;;;;;;;4189250;28;20044;-60
2023/03/15 07:54:11;;;;;;;1.95;1.95;;;;;;;;;;4189764;28;20065;-60
2023/03/15 07:56:32;;;;;;;2.00;2.00;;;;;;;;;;4188671;28;20064;-60
2023/03/15 07:58:52;;;;;;;2.00;2.00;;;;;;;;;;4188209;28;20052;-60
2023/03/15 08:01:12;;;;;;;1.92;1.92;;;;;;;;;;4189713;28;20268;-60
2023/03/15 08:03:32;;;;;;;1.52;1.52;;;;;;;;;;4189569;28;20083;-61
2023/03/15 08:05:53;;;;;;;1.80;1.80;;;;;;;;;;4189408;28;20426;-60
2023/03/15 08:08:12;;;;;;;2.13;2.13;;;;;;;;;;4189129;28;20402;-60
2023/03/15 08:10:33;;;;;;;2.97;2.97;;;;;;;;;;4188828;28;20055;-60
2023/03/15 08:12:53;;;;;;;1.40;1.40;;;;;;;;;;4189639;28;20056;-60
2023/03/15 08:15:13;;;;;;;1.30;1.30;;;;;;;;;;4189505;28;20044;-60
2023/03/15 08:17:34;;;;;;;1.85;1.85;;;;;;;;;;4188476;28;20063;-60
2023/03/15 08:19:54;;;;;;;1.70;1.70;;;;;;;;;;4192270;28;20039;-60
2023/03/15 08:22:15;;;;;;;1.73;1.73;;;;;;;;;;4188267;28;20410;-60
2023/03/15 08:24:35;;;;;;;1.83;1.83;;;;;;;;;;4188907;28;20051;-60
2023/03/15 08:26:55;;;;;;;1.48;1.48;;;;;;;;;;4189455;28;20113;-61
2023/03/15 08:29:15;;;;;;;1.23;1.23;;;;;;;;;;4188964;28;20271;-60
2023/03/15 08:31:35;;;;;;;1.20;1.20;;;;;;;;;;4189345;28;20048;-60
2023/03/15 08:33:56;;;;;;;1.30;1.30;;;;;;;;;;4188273;28;20394;-60
2023/03/15 08:36:16;;;;;;;1.60;1.60;;;;;;;;;;4189280;28;20051;-60
2023/03/15 08:38:36;;;;;;;1.50;1.50;;;;;;;;;;4188645;28;20402;-60
2023/03/15 08:40:57;;;;;;;1.20;1.20;;;;;;;;;;4189209;28;20087;-61
2023/03/15 08:43:17;;;;;;;1.33;1.33;;;;;;;;;;4187803;28;20052;-60
2023/03/15 08:45:38;;;;;;;1.17;1.17;;;;;;;;;;4189165;28;20060;-60
2023/03/15 08:48:18;;;;;;;1.67;1.30;;;;;;;;;;4189061;28;20040;-60
2023/03/15 08:50:38;;;;;;;1.20;1.20;;;;;;;;;;4189793;28;20108;-60
2023/03/15 08:52:59;;;;;;;2.15;1.38;;;;;;;;;;4192103;28;20086;-60
2023/03/15 08:55:19;;;;;;;1.20;1.20;;;;;;;;;;4191885;28;20044;-61
2023/03/15 08:57:39;;;;;;;1.17;1.17;;;;;;;;;;4191742;28;20056;-60
2023/03/15 09:00:00;;;;;;;1.10;1.00;;;;;;;;;;4191754;28;20114;-60
2023/03/15 09:02:22;;;;;;;7.30;7.00;;;;;;;;;;4191751;28;20109;-60
2023/03/15 09:04:42;;;;;;;2.03;2.03;;;;;;;;;;4191705;28;20278;-60
2023/03/15 09:07:02;;;;;;;1.48;1.48;;;;;;;;;;4191660;28;20108;-60
2023/03/15 09:09:23;;;;;;;14.95;12.68;;;;;;;;;;4191812;28;20048;-60
2023/03/15 09:11:43;;;;;;;1.95;1.95;;;;;;;;;;4191593;28;20055;-60
2023/03/15 09:14:03;;;;;;;1.30;1.30;;;;;;;;;;4191778;28;20044;-60
2023/03/15 09:16:23;;;;;;;1.50;1.50;;;;;;;;;;4191839;28;20241;-61
2023/03/15 09:18:44;;;;;;;1.40;1.40;;;;;;;;;;4191333;28;20105;-60
2023/03/15 09:21:04;;;;;;;1.50;1.50;;;;;;;;;;4191706;28;20079;-60
2023/03/15 09:23:24;;;;;;;1.10;1.10;;;;;;;;;;4191794;28;20040;-60
2023/03/15 09:25:45;;;;;;;1.35;1.30;;;;;;;;;;4191759;28;20051;-60
2023/03/15 09:28:06;;;;;;;1.30;1.30;;;;;;;;;;4191519;28;20083;-60
2023/03/15 09:30:27;;;;;;;1.20;1.20;;;;;;;;;;4191048;28;20052;-60
2023/03/15 09:32:47;;;;;;;1.85;1.75;;;;;;;;;;4191645;28;20048;-60
2023/03/15 09:35:10;;;;;;;1.30;1.10;;;;;;;;;;4191238;28;20224;-60
2023/03/15 09:37:30;;;;;;;8.07;1.73;;;;;;;;;;4191472;28;20051;-60
2023/03/15 09:39:50;;;;;;;1.20;1.20;;;;;;;;;;4191052;28;20363;-60
2023/03/15 09:42:16;;;;;;;1.33;1.33;;;;;;;;;;4191410;28;20047;-60
2023/03/15 09:44:47;;;;;;;1.95;1.95;;;;;;;;;;4190835;28;20044;-60
2023/03/15 09:47:13;;;;;;;1.30;1.30;;;;;;;;;;4191195;28;20079;-60
2023/03/15 09:49:40;;;;;;;1.20;1.20;;;;;;;;;;4190577;28;20060;-60
2023/03/15 09:52:23;;;;;;;1.10;1.10;;;;;;;;;;4191247;28;20397;-59
2023/03/15 09:54:52;;;;;;;1.20;1.20;;;;;;;;;;4191336;28;20107;-60
2023/03/15 09:57:20;;;;;;;1.52;1.40;;;;;;;;;;4191182;28;20086;-60
2023/03/15 09:59:42;;;;;;;1.20;1.20;;;;;;;;;;4190073;28;20075;-60
2023/03/15 10:02:13;;;;;;;1.20;1.20;;;;;;;;;;4190374;28;20378;-59
2023/03/15 10:04:39;;;;;;;1.27;1.27;;;;;;;;;;4190348;28;20048;-59
2023/03/15 10:07:01;;;;;;;4.63;1.20;;;;;;;;;;4190182;28;20043;-59
2023/03/15 10:09:23;;;;;;;1.65;1.65;;;;;;;;;;4190359;28;20060;-59
2023/03/15 10:11:49;;;;;;;1.70;1.70;;;;;;;;;;4191100;28;20151;-59
2023/03/15 10:14:33;;;;;;;1.10;1.10;;;;;;;;;;4190904;28;20055;-59
2023/03/15 10:16:53;;;;;;;1.55;1.55;;;;;;;;;;4172893;28;20048;-59
2023/03/15 10:19:14;;;;;;;1.17;1.17;;;;;;;;;;4190403;28;20232;-60
2023/03/15 10:21:38;;;;;;;1.30;1.30;;;;;;;;;;4190600;28;20048;-59
2023/03/15 10:23:59;;;;;;;1.60;1.60;;;;;;;;;;4190820;28;20099;-60
2023/03/15 10:26:22;;;;;;;1.83;1.83;;;;;;;;;;4190697;28;20120;-60
2023/03/15 10:28:43;;;;;;;1.30;1.30;;;;;;;;;;4190073;28;20450;-60
2023/03/15 10:31:11;;;;;;;1.60;1.60;;;;;;;;;;4190114;28;20067;-60
2023/03/15 10:33:38;;;;;;;1.70;1.70;;;;;;;;;;4190744;28;20052;-60
2023/03/15 10:35:59;;;;;;;1.58;1.58;;;;;;;;;;4190503;28;20405;-60
2023/03/15 10:38:31;;;;;;;2.73;2.73;;;;;;;;;;4190651;28;20044;-60
2023/03/15 10:40:52;;;;;;;1.90;1.90;;;;;;;;;;4190580;28;20067;-60
2023/03/15 10:43:19;;;;;;;1.30;1.30;;;;;;;;;;4190650;28;20436;-59
2023/03/15 10:45:39;;;;;;;1.33;1.33;;;;;;;;;;4189595;28;20052;-60
2023/03/15 10:47:59;;;;;;;1.27;1.27;;;;;;;;;;4189484;28;20095;-59
2023/03/15 10:50:29;;;;;;;1.73;1.73;;;;;;;;;;4190440;28;20248;-60
2023/03/15 10:52:50;;;;;;;1.88;1.88;;;;;;;;;;4190630;28;20079;-60
2023/03/15 10:55:20;;;;;;;1.48;1.48;;;;;;;;;;4190262;28;20048;-60
2023/03/15 10:57:50;;;;;;;1.40;1.40;;;;;;;;;;4190589;28;20116;-60
2023/03/15 11:00:29;;;;;;;1.40;1.40;;;;;;;;;;4190195;28;20451;-60
2023/03/15 11:02:51;;;;;;;1.40;1.40;;;;;;;;;;4189812;28;20072;-59
2023/03/15 11:05:12;;;;;;;1.40;1.40;;;;;;;;;;4189334;28;20040;-59
2023/03/15 11:07:34;;;;;;;1.30;1.30;;;;;;;;;;4190301;28;20274;-60
2023/03/15 11:09:59;;;;;;;1.27;1.27;;;;;;;;;;4190433;28;20079;-60
2023/03/15 11:12:23;;;;;;;1.48;1.48;;;;;;;;;;4188221;28;20079;-60
2023/03/15 11:14:46;;;;;;;1.40;1.10;;;;;;;;;;4187325;28;20060;-60
2023/03/15 11:17:07;;;;;;;1.75;1.75;;;;;;;;;;4189971;28;20108;-60
2023/03/15 11:19:30;;;;;;;1.63;1.50;;;;;;;;;;4189973;28;20069;-59
2023/03/15 11:21:51;;;;;;;1.90;1.90;;;;;;;;;;4188976;28;20056;-60
2023/03/15 11:24:19;;;;;;;1.30;1.30;;;;;;;;;;4187918;28;20315;-60
2023/03/15 11:26:41;;;;;;;1.98;1.20;;;;;;;;;;4188937;28;20118;-60
2023/03/15 11:29:07;;;;;;;1.40;1.40;;;;;;;;;;4192237;28;20107;-59
2023/03/15 11:31:27;;;;;;;1.10;1.10;;;;;;;;;;4189472;28;20091;-60
2023/03/15 11:33:56;;;;;;;1.20;1.20;;;;;;;;;;4189571;28;20047;-60
2023/03/15 11:36:21;;;;;;;1.30;1.30;;;;;;;;;;4189535;28;20072;-60
2023/03/15 11:38:42;;;;;;;1.50;1.50;;;;;;;;;;4189208;28;20125;-60
2023/03/15 11:41:22;;;;;;;1.00;1.00;;;;;;;;;;4189968;28;20083;-60
2023/03/15 11:43:45;;;;;;;1.20;1.20;;;;;;;;;;4189672;28;20074;-60
2023/03/15 11:46:09;;;;;;;1.20;1.20;;;;;;;;;;4189623;28;20052;-60
2023/03/15 11:48:50;;;;;;;1.10;1.10;;;;;;;;;;4202895;28;20082;-60
2023/03/15 11:51:11;;;;;;;1.75;1.65;;;;;;;;;;4189453;28;20060;-60
2023/03/15 11:53:41;;;;;;;2.78;1.55;;;;;;;;;;4189785;28;20078;-61
2023/03/15 11:56:20;;;;;;;1.10;1.10;;;;;;;;;;4189421;28;20059;-60
2023/03/15 11:58:41;;;;;;;2.70;1.42;;;;;;;;;;4189249;28;20143;-60
2023/03/15 12:01:03;;;;;;;1.30;1.20;;;;;;;;;;4189747;28;20374;-60
2023/03/15 12:03:33;;;;;;;1.20;1.20;;;;;;;;;;4189467;28;20239;-60
2023/03/15 12:06:00;;;;;;;1.45;1.35;;;;;;;;;;4189147;28;20239;-60
2023/03/15 12:08:20;;;;;;;1.10;1.10;;;;;;;;;;4188378;28;20327;-60
2023/03/15 12:10:45;;;;;;;1.27;1.17;;;;;;;;;;4189632;28;20087;-60
2023/03/15 12:13:07;;;;;;;1.15;1.10;;;;;;;;;;4189367;28;20106;-60
2023/03/15 12:15:27;;;;;;;1.15;1.15;;;;;;;;;;4188170;28;20403;-60
2023/03/15 12:17:51;;;;;;;1.10;1.10;;;;;;;;;;4188710;28;20056;-60
2023/03/15 12:20:11;;;;;;;1.55;1.52;;;;;;;;;;4188678;28;20117;-60
2023/03/15 12:22:33;;;;;;;1.48;1.30;;;;;;;;;;4189463;28;20055;-60
2023/03/15 12:24:53;;;;;;;1.00;1.00;;;;;;;;;;4187699;28;20049;-61
2023/03/15 12:27:19;;;;;;;1.10;1.10;;;;;;;;;;4188919;28;20052;-60
2023/03/15 12:29:40;;;;;;;1.10;1.10;;;;;;;;;;4189180;28;20118;-60
2023/03/15 12:32:03;;;;;;;1.10;1.10;;;;;;;;;;4189287;28;20047;-60
2023/03/15 12:34:25;;;;;;;1.13;1.13;;;;;;;;;;4188692;28;20236;-60
2023/03/15 12:36:47;;;;;;;1.67;1.10;;;;;;;;;;4187703;28;20112;-60
2023/03/15 12:39:13;;;;;;;1.75;1.38;;;;;;;;;;4189318;28;20044;-64
2023/03/15 12:41:45;;;;;;;1.20;1.20;;;;;;;;;;4188823;28;20036;-64
2023/03/15 12:44:24;;;;;;;1.95;1.55;;;;;;;;;;4189010;28;20059;-64
2023/03/15 12:46:44;;;;;;;1.13;1.13;;;;;;;;;;4188172;28;20067;-64
2023/03/15 12:49:06;;;;;;;1.48;1.10;;;;;;;;;;4189262;28;20051;-64
2023/03/15 12:51:41;;;;;;;1.20;1.20;;;;;;;;;;4188305;28;20370;-64
2023/03/15 12:54:02;;;;;;;1.17;1.17;;;;;;;;;;4188830;28;20048;-64
2023/03/15 12:56:40;;;;;;;1.20;1.20;;;;;;;;;;4189141;28;20419;-64
2023/03/15 12:59:05;;;;;;;1.10;1.10;;;;;;;;;;4188294;28;20064;-64
2023/03/15 13:01:25;;;;;;;1.85;1.50;;;;;;;;;;4189000;28;20229;-64
2023/03/15 13:03:45;;;;;;;1.13;1.13;;;;;;;;;;4188938;28;20247;-64
2023/03/15 13:06:12;;;;;;;1.60;1.20;;;;;;;;;;4189012;28;20055;-64
2023/03/15 13:08:45;;;;;;;1.23;1.23;;;;;;;;;;4188542;28;20041;-64
2023/03/15 13:11:24;;;;;;;1.10;1.10;;;;;;;;;;4188903;28;20110;-64
2023/03/15 13:13:55;;;;;;;1.15;1.15;;;;;;;;;;4188682;28;20036;-64
2023/03/15 13:16:20;;;;;;;1.00;1.00;;;;;;;;;;4188778;28;20224;-64
2023/03/15 13:18:44;;;;;;;1.52;1.52;;;;;;;;;;4188462;28;20067;-64
2023/03/15 13:21:15;;;;;;;1.13;1.13;;;;;;;;;;4188770;28;20112;-64
2023/03/15 13:23:35;;;;;;;1.10;1.10;;;;;;;;;;4188664;28;20052;-64
2023/03/15 13:26:14;;;;;;;1.20;1.20;;;;;;;;;;4187837;28;20043;-64
2023/03/15 13:28:39;;;;;;;1.20;1.20;;;;;;;;;;4188603;28;20044;-64
2023/03/15 13:30:59;;;;;;;1.90;1.90;;;;;;;;;;4188846;28;20048;-64
2023/03/15 13:33:25;;;;;;;1.35;1.35;;;;;;;;;;4187601;28;20275;-64
2023/03/15 13:35:55;;;;;;;1.10;1.10;;;;;;;;;;4188103;28;20417;-63
2023/03/15 13:38:25;;;;;;;1.67;1.48;;;;;;;;;;4189696;28;20055;-63
2023/03/15 13:40:46;;;;;;;1.10;1.10;;;;;;;;;;4190422;28;20059;-63
2023/03/15 13:43:09;;;;;;;1.20;1.20;;;;;;;;;;4189935;28;20083;-63
2023/03/15 13:45:30;;;;;;;1.10;1.10;;;;;;;;;;4191390;28;20072;-62
2023/03/15 13:47:50;;;;;;;1.10;1.10;;;;;;;;;;4191536;28;20044;-62
2023/03/15 13:50:15;;;;;;;1.10;1.10;;;;;;;;;;4191406;28;20112;-62
2023/03/15 13:52:36;;;;;;;1.30;1.30;;;;;;;;;;4190546;28;20036;-63
2023/03/15 13:54:57;;;;;;;1.20;1.20;;;;;;;;;;4190481;28;20040;-63
2023/03/15 13:57:21;;;;;;;1.67;1.60;;;;;;;;;;4191078;28;20051;-63
2023/03/15 13:59:45;;;;;;;1.20;1.20;;;;;;;;;;4190989;28;20048;-63
2023/03/15 14:02:05;;;;;;;1.50;1.50;;;;;;;;;;4190191;28;20108;-63
2023/03/15 14:04:26;;;;;;;1.30;1.20;;;;;;;;;;4189976;28;20239;-62
2023/03/15 14:06:47;;;;;;;1.40;1.40;;;;;;;;;;4188667;28;20044;-63
2023/03/15 14:09:16;;;;;;;1.35;1.35;;;;;;;;;;4190857;28;20044;-62
2023/03/15 14:11:39;;;;;;;1.52;1.42;;;;;;;;;;4190897;28;20071;-63
2023/03/15 14:14:04;;;;;;;1.27;1.27;;;;;;;;;;4190380;28;20095;-61